Latest Coastal Weather Observations for Cape Flattery

IDQ60701

Issued at 10:43 pm EST Tuesday 21 May 2024 (issued every 10 minutes, with the page automatically refreshed every 10 minutes)

About coastal observations | Map of coastal stations | Coastal observations for QLD | Marine services | Other Formats
Station Details ID: 031213 Name: CAPE FLATTERY Lat: -14.97 Lon: 145.31 Height: 18.5 m
Data from the previous 72 hours. | See also: Recent months at Cape Flattery
Date/Time
EST
Wind Sea
Height
m
Swell Vis
km
Cloud Weather Temp
°C
Press
MSL
hPa
Rain since
9am
mm
Dir  Spd
kts
Gust
kts
Height
m
Period
s
Dir
21/10:30pm SSE 18 26 - - - - - - - 24.9 1016.1 0.6
21/10:06pm SSE 17 27 - - - - - - - 24.6 1016.1 0.6
21/10:00pm SE 16 22 - - - - - - - 23.8 1016.2 0.6
21/09:30pm SE 14 20 - - - - - - - 23.2 1016.4 0.6
21/09:08pm SE 17 27 - - - - - - - 24.0 1016.6 0.6
21/09:00pm SE 18 26 - - - - - - - 24.7 1016.5 0.6
21/08:30pm SE 15 22 - - - - - - - 24.2 1016.3 0.6
21/08:00pm SSE 18 25 - - - - - - - 24.2 1016.1 0.6
21/07:30pm SSE 17 23 - - - - - - - 24.5 1015.7 0.6
21/07:00pm SE 18 23 - - - - - - - 24.3 1015.3 0.6
21/06:30pm SSE 18 26 - - - - - - - 24.3 1015.0 0.6
21/06:00pm SSE 17 24 - - - - - - - 24.2 1014.6 0.6
21/05:30pm SSE 18 27 - - - - - - - 24.2 1014.2 0.6
21/05:00pm SSE 19 26 - - - - - - - 24.6 1013.9 0.6
21/04:49pm SE 16 26 - - - - - - - 24.7 1013.8 0.6
21/04:30pm SE 17 23 - - - - - - - 25.0 1013.8 0.6
21/04:00pm SSE 15 20 - - - - - - - 24.9 1013.7 0.6
21/03:30pm SSE 14 20 - - - - - - - 24.1 1013.6 0.6
21/03:00pm SE 15 21 - - - - - - - 25.3 1013.6 0.2
21/02:30pm SSE 17 23 - - - - - - - 27.7 1013.5 0.2
21/02:00pm SE 16 23 - - - - - - - 27.7 1013.5 0.2
21/01:30pm SE 16 22 - - - - - - - 27.9 1013.9 0.2
21/01:00pm ESE 15 21 - - - - - - - 27.3 1014.2 0.2
21/12:30pm SE 15 22 - - - - - - - 27.7 1014.3 0.2
21/12:00pm SE 14 21 - - - - - - - 25.9 1014.6 0.2
21/11:30am SE 15 21 - - - - - - - 26.6 1015.0 0.2
21/11:00am SE 15 19 - - - - - - - 26.4 1015.3 0.2
21/10:30am SE 14 20 - - - - - - - 24.8 1015.7 0.2
21/10:10am SE 16 29 - - - - - - - 27.3 1015.7 0.2
21/10:00am SE 15 21 - - - - - - - 27.2 1015.6 0.0
21/09:42am SE 16 26 - - - - - - - 25.6 1015.5 0.0
21/09:30am SE 17 26 - - - - - - - 25.5 1015.5 0.0
21/09:26am SE 16 26 - - - - - - - 26.4 1015.5 0.0
21/09:00am SE 16 22 - - - - - - - 26.4 1015.3 0.0
21/08:30am SE 15 22 - - - - - - - 24.8 1015.1 0.0
21/08:00am SE 15 21 - - - - - - - 25.0 1014.8 0.0
21/07:30am SE 14 19 - - - - - - - 24.9 1014.6 0.0
21/07:00am SE 16 23 - - - - - - - 24.9 1014.1 0.0
21/06:40am SE 15 25 - - - - - - - 24.9 1014.0 0.0
21/06:30am SE 15 21 - - - - - - - 24.9 1013.8 0.0
21/06:00am SE 15 20 - - - - - - - 24.9 1013.6 0.0
21/05:30am SE 14 20 - - - - - - - 24.7 1013.7 0.0
21/05:00am SE 13 21 - - - - - - - 24.7 1013.3 0.0
21/04:30am SE 13 19 - - - - - - - 24.4 1013.5 0.0
21/04:00am SE 13 17 - - - - - - - 24.2 1013.6 0.0
21/03:30am SE 14 19 - - - - - - - 24.0 1013.5 0.0
21/03:00am SE 13 19 - - - - - - - 23.7 1013.4 0.0
21/02:30am SSE 12 17 - - - - - - - 23.8 1013.7 0.0
21/02:00am SSE 13 18 - - - - - - - 23.5 1014.1 0.0
21/01:30am SSE 16 22 - - - - - - - 23.6 1014.5 0.0
21/01:00am SSE 19 25 - - - - - - - 23.9 1014.6 0.0
21/12:30am S 18 24 - - - - - - - 23.8 1014.8 0.0
21/12:00am SSE 17 25 - - - - - - - 23.8 1014.7 0.0
 
Date/Time
EST
Wind Sea
Height
m
Swell Vis
km
Cloud Weather Temp
°C
Press
MSL
hPa
Rain since
9am
mm
Dir  Spd
kts
Gust
kts
Height
m
Period
s
Dir
20/11:30pm SSE 19 25 - - - - - - - 24.0 1015.0 0.0
20/11:00pm SSE 19 27 - - - - - - - 24.0 1015.0 0.0
20/10:35pm SSE 19 29 - - - - - - - 24.2 1015.2 0.0
20/10:30pm SSE 19 27 - - - - - - - 24.2 1015.2 0.0
20/10:00pm SSE 18 25 - - - - - - - 23.8 1015.4 0.0
20/09:30pm SSE 19 26 - - - - - - - 23.6 1015.6 0.0
20/09:00pm SSE 22 30 - - - - - - - 23.9 1015.3 0.0
20/08:30pm SSE 19 26 - - - - - - - 23.8 1015.4 0.0
20/08:00pm SSE 19 27 - - - - - - - 23.9 1015.2 0.0
20/07:30pm SSE 20 29 - - - - - - - 23.6 1014.6 0.0
20/07:08pm SSE 19 29 - - - - - - - 23.7 1014.3 0.0
20/07:00pm SSE 19 24 - - - - - - - 23.6 1014.3 0.0
20/06:35pm SSE 19 29 - - - - - - - 23.8 1014.1 0.0
20/06:30pm SSE 20 26 - - - - - - - 23.9 1013.9 0.0
20/06:00pm SSE 20 27 - - - - - - - 24.1 1013.8 0.0
20/05:30pm SSE 18 24 - - - - - - - 24.3 1013.5 0.0
20/05:00pm SE 17 26 - - - - - - - 25.3 1013.0 0.0
20/04:30pm SE 18 25 - - - - - - - 25.4 1012.9 0.0
20/04:00pm SE 17 24 - - - - - - - 25.5 1013.1 0.0
20/03:30pm SSE 19 27 - - - - - - - 26.1 1012.8 0.0
20/03:00pm SE 19 25 - - - - - - - 26.3 1012.6 0.0
20/02:30pm SSE 19 25 - - - - - - - 26.1 1012.8 0.0
20/02:00pm SE 17 25 - - - - - - - 26.2 1013.0 0.0
20/01:30pm SSE 17 23 - - - - - - - 25.9 1013.4 0.0
20/01:00pm SE 19 26 - - - - - - - 26.4 1013.8 0.0
20/12:30pm SSE 17 25 - - - - - - - 26.3 1014.0 0.0
20/12:00pm SSE 19 25 - - - - - - - 26.8 1014.4 0.0
20/11:30am SSE 19 27 - - - - - - - 27.2 1014.8 0.0
20/11:00am SSE 19 26 - - - - - - - 26.2 1015.2 0.0
20/10:30am SSE 18 26 - - - - - - - 26.4 1015.3 0.0
20/10:00am SE 19 27 - - - - - - - 25.6 1015.5 0.0
20/09:30am SE 19 28 - - - - - - - 25.3 1015.5 0.0
20/09:00am SSE 18 26 - - - - - - - 24.7 1015.4 0.0
20/08:30am SE 18 27 - - - - - - - 24.6 1015.0 0.0
20/08:00am SE 19 27 - - - - - - - 24.3 1014.7 0.0
20/07:30am SE 19 27 - - - - - - - 24.0 1014.4 0.0
20/07:14am SE 18 28 - - - - - - - 23.9 1014.1 0.0
20/07:00am SE 19 28 - - - - - - - 24.0 1014.1 0.0
20/06:42am SE 18 28 - - - - - - - 23.9 1013.9 0.0
20/06:30am SE 18 27 - - - - - - - 23.9 1013.8 0.0
20/06:19am SE 18 28 - - - - - - - 23.9 1013.7 0.0
20/06:00am SE 19 27 - - - - - - - 23.9 1013.6 0.0
20/05:30am SE 18 26 - - - - - - - 23.9 1013.2 0.0
20/05:10am SE 17 27 - - - - - - - 23.9 1013.2 0.0
20/05:00am SE 19 27 - - - - - - - 24.0 1013.1 0.0
20/04:30am SE 20 26 - - - - - - - 24.0 1013.3 0.0
20/04:00am SSE 19 26 - - - - - - - 24.0 1013.2 0.0
20/03:37am SE 18 28 - - - - - - - 23.9 1013.3 0.0
20/03:30am SE 20 27 - - - - - - - 23.9 1013.2 0.0
20/03:03am SE 17 28 - - - - - - - 23.8 1013.5 0.0
20/03:00am SE 17 25 - - - - - - - 23.7 1013.4 0.0
20/02:30am SE 16 24 - - - - - - - 23.8 1013.6 0.0
20/02:00am SE 18 25 - - - - - - - 23.9 1013.8 0.0
20/01:30am SE 19 27 - - - - - - - 23.9 1014.0 0.0
20/01:19am SE 19 29 - - - - - - - 23.9 1014.1 0.0
20/01:00am SE 18 25 - - - - - - - 24.0 1014.3 0.0
20/12:30am SE 17 25 - - - - - - - 24.1 1014.4 0.0
20/12:00am SE 17 24 - - - - - - - 24.3 1014.7 0.0
 
Date/Time
EST
Wind Sea
Height
m
Swell Vis
km
Cloud Weather Temp
°C
Press
MSL
hPa
Rain since
9am
mm
Dir  Spd
kts
Gust
kts
Height
m
Period
s
Dir
19/11:30pm SE 15 22 - - - - - - - 24.5 1014.9 0.0
19/11:00pm SE 16 22 - - - - - - - 24.7 1014.9 0.0
19/10:30pm SE 17 26 - - - - - - - 24.9 1014.7 0.0
19/10:00pm SE 17 25 - - - - - - - 24.9 1014.7 0.0
19/09:30pm SE 17 25 - - - - - - - 25.0 1014.6 0.0
19/09:00pm SSE 19 25 - - - - - - - 25.2 1014.5 0.0
19/08:30pm SSE 18 24 - - - - - - - 24.9 1014.0 0.0
19/08:00pm SSE 18 23 - - - - - - - 24.9 1013.8 0.0
19/07:30pm SSE 19 27 - - - - - - - 24.9 1013.4 0.0
19/07:00pm SSE 19 25 - - - - - - - 24.9 1013.1 0.0
19/06:30pm SSE 19 25 - - - - - - - 25.1 1012.8 0.0
19/06:00pm SSE 17 23 - - - - - - - 25.0 1012.5 0.0
19/05:30pm SSE 19 25 - - - - - - - 25.5 1012.2 0.0
19/05:00pm SE 19 26 - - - - - - - 26.0 1011.9 0.0
19/04:30pm SE 19 26 - - - - - - - 26.5 1011.6 0.0
19/04:00pm SE 19 26 - - - - - - - 27.0 1011.4 0.0
19/03:30pm SE 18 25 - - - - - - - 26.5 1011.4 0.0
19/03:18pm SE 17 27 - - - - - - - 26.9 1011.2 0.0
19/03:00pm SE 19 26 - - - - - - - 27.9 1011.3 0.0
19/02:33pm SE 19 29 - - - - - - - 27.9 1011.2 0.0
19/02:30pm SE 20 29 - - - - - - - 28.2 1011.2 0.0
19/02:20pm SE 20 30 - - - - - - - 28.0 1011.2 0.0
19/02:00pm SE 20 27 - - - - - - - 28.1 1011.3 0.0
19/01:30pm SE 20 29 - - - - - - - 27.9 1011.6 0.0
19/01:16pm SE 17 27 - - - - - - - 27.7 1011.9 0.0
19/01:00pm SE 19 28 - - - - - - - 28.5 1012.3 0.0
19/12:30pm SE 18 27 - - - - - - - 28.4 1012.8 0.0
19/12:16pm SE 18 28 - - - - - - - 27.8 1013.0 0.0
19/12:00pm SE 20 29 - - - - - - - 27.8 1013.0 0.0
19/11:51am SE 19 29 - - - - - - - 28.1 1013.0 0.0
19/11:30am SE 20 29 - - - - - - - 28.3 1013.2 0.0
19/11:26am SE 19 29 - - - - - - - 28.4 1013.2 0.0
19/11:00am SE 20 27 - - - - - - - 28.0 1013.3 0.0
19/10:30am SE 18 26 - - - - - - - 28.5 1013.7 0.0
19/10:00am SE 18 26 - - - - - - - 27.5 1013.8 0.0
19/09:30am SE 19 25 - - - - - - - 27.3 1013.7 0.0
19/09:00am SE 18 25 - - - - - - - 27.2 1013.5 0.2
19/08:30am SE 18 28 - - - - - - - 26.0 1013.0 0.2
19/08:00am SE 19 25 - - - - - - - 26.0 1012.7 0.2
19/07:33am SE 18 28 - - - - - - - 25.6 1012.4 0.2
19/07:30am SE 18 26 - - - - - - - 25.6 1012.5 0.2
19/07:00am SE 17 27 - - - - - - - 24.9 1012.1 0.2
19/06:54am SE 17 27 - - - - - - - 25.0 1012.2 0.2
19/06:30am SE 18 25 - - - - - - - 24.8 1011.7 0.2
19/06:10am SE 16 26 - - - - - - - 24.8 1011.6 0.2
19/06:00am SE 16 25 - - - - - - - 24.8 1011.4 0.2
19/05:46am SE 17 27 - - - - - - - 24.8 1011.4 0.2
19/05:30am SE 19 25 - - - - - - - 24.8 1011.2 0.2
19/05:00am SE 18 24 - - - - - - - 24.9 1011.2 0.2
19/04:30am SE 16 22 - - - - - - - 24.9 1011.4 0.2
19/04:00am SE 16 24 - - - - - - - 25.1 1011.4 0.2
19/03:36am SE 16 26 - - - - - - - 25.1 1011.2 0.2
19/03:30am SE 17 26 - - - - - - - 25.0 1011.1 0.2
19/03:12am SE 17 27 - - - - - - - 25.0 1011.1 0.2
19/03:00am SE 17 23 - - - - - - - 25.1 1011.2 0.2
19/02:30am SE 19 26 - - - - - - - 25.1 1011.4 0.2
19/02:00am SE 15 20 - - - - - - - 25.0 1011.7 0.2
19/01:30am SE 15 21 - - - - - - - 25.2 1012.2 0.2
19/01:00am SSE 15 21 - - - - - - - 25.3 1012.3 0.2
19/12:30am SE 17 24 - - - - - - - 25.2 1012.5 0.2
19/12:00am SSE 16 24 - - - - - - - 25.3 1012.9 0.2
 
Date/Time
EST
Wind Sea
Height
m
Swell Vis
km
Cloud Weather Temp
°C
Press
MSL
hPa
Rain since
9am
mm
Dir  Spd
kts
Gust
kts
Height
m
Period
s
Dir
18/11:30pm SSE 17 22 - - - - - - - 25.1 1013.0 0.2
18/11:00pm SSE 16 24 - - - - - - - 24.8 1013.1 0.2

Other formats

Comma delimited format used in spreadsheet applications
http://www.bom.gov.au/fwo/IDQ60701/IDQ60701.94188.axf

JavaScript Object Notation format (JSON) in row-major order
http://www.bom.gov.au/fwo/IDQ60701/IDQ60701.94188.json

Data quality

Most of these data are generated automatically and are frequently updated. Quality checks on data are not normally performed. It is possible for incorrect values to appear. Refer to information at About Latest Weather Observations and please check the disclaimer before using these data.